sensor_id;sensor_type;location;lat;lon;timestamp;P1;durP1;ratioP1;P2;durP2;ratioP2
30380;SDS011;17169;50.966;11.038;2023-03-18T00:02:15;3.78;;;1.92;;
30380;SDS011;17169;50.966;11.038;2023-03-18T00:05:18;6.15;;;1.75;;
30380;SDS011;17169;50.966;11.038;2023-03-18T00:08:21;5.22;;;1.73;;
30380;SDS011;17169;50.966;11.038;2023-03-18T00:11:24;4.28;;;1.83;;
30380;SDS011;17169;50.966;11.038;2023-03-18T00:14:27;3.10;;;1.75;;
30380;SDS011;17169;50.966;11.038;2023-03-18T00:17:29;5.68;;;1.70;;
30380;SDS011;17169;50.966;11.038;2023-03-18T00:20:31;2.95;;;1.80;;
30380;SDS011;17169;50.966;11.038;2023-03-18T00:23:39;4.95;;;1.67;;
30380;SDS011;17169;50.966;11.038;2023-03-18T00:26:43;8.50;;;1.90;;
30380;SDS011;17169;50.966;11.038;2023-03-18T00:29:45;4.63;;;1.87;;
30380;SDS011;17169;50.966;11.038;2023-03-18T00:32:48;3.50;;;1.60;;
30380;SDS011;17169;50.966;11.038;2023-03-18T00:35:50;4.57;;;1.88;;
30380;SDS011;17169;50.966;11.038;2023-03-18T00:38:54;5.35;;;1.75;;
30380;SDS011;17169;50.966;11.038;2023-03-18T00:41:59;5.38;;;2.00;;
30380;SDS011;17169;50.966;11.038;2023-03-18T00:45:10;7.18;;;2.20;;
30380;SDS011;17169;50.966;11.038;2023-03-18T00:48:13;4.50;;;2.00;;
30380;SDS011;17169;50.966;11.038;2023-03-18T00:51:15;4.45;;;2.08;;
30380;SDS011;17169;50.966;11.038;2023-03-18T00:54:18;4.63;;;2.00;;
30380;SDS011;17169;50.966;11.038;2023-03-18T00:57:23;8.13;;;1.90;;
30380;SDS011;17169;50.966;11.038;2023-03-18T01:00:25;5.00;;;2.50;;
30380;SDS011;17169;50.966;11.038;2023-03-18T01:03:28;4.13;;;1.95;;
30380;SDS011;17169;50.966;11.038;2023-03-18T01:06:33;5.97;;;2.00;;
30380;SDS011;17169;50.966;11.038;2023-03-18T01:09:37;4.75;;;2.03;;
30380;SDS011;17169;50.966;11.038;2023-03-18T01:12:41;5.57;;;1.92;;
30380;SDS011;17169;50.966;11.038;2023-03-18T01:15:46;5.28;;;1.98;;
30380;SDS011;17169;50.966;11.038;2023-03-18T01:18:48;3.60;;;1.75;;
30380;SDS011;17169;50.966;11.038;2023-03-18T01:21:51;5.60;;;2.00;;
30380;SDS011;17169;50.966;11.038;2023-03-18T01:24:54;7.30;;;1.90;;
30380;SDS011;17169;50.966;11.038;2023-03-18T01:27:58;6.80;;;2.33;;
30380;SDS011;17169;50.966;11.038;2023-03-18T01:31:00;4.32;;;2.50;;
30380;SDS011;17169;50.966;11.038;2023-03-18T01:34:04;5.70;;;2.33;;
30380;SDS011;17169;50.966;11.038;2023-03-18T01:37:06;4.72;;;2.08;;
30380;SDS011;17169;50.966;11.038;2023-03-18T01:40:10;4.95;;;2.22;;
30380;SDS011;17169;50.966;11.038;2023-03-18T01:43:17;7.35;;;1.95;;
30380;SDS011;17169;50.966;11.038;2023-03-18T01:46:31;4.82;;;2.13;;
30380;SDS011;17169;50.966;11.038;2023-03-18T01:49:37;5.30;;;2.17;;
30380;SDS011;17169;50.966;11.038;2023-03-18T01:52:43;4.65;;;2.05;;
30380;SDS011;17169;50.966;11.038;2023-03-18T01:55:47;4.13;;;2.08;;
30380;SDS011;17169;50.966;11.038;2023-03-18T01:58:53;5.73;;;2.30;;
30380;SDS011;17169;50.966;11.038;2023-03-18T02:01:58;5.97;;;2.17;;
30380;SDS011;17169;50.966;11.038;2023-03-18T02:05:05;5.03;;;2.17;;
30380;SDS011;17169;50.966;11.038;2023-03-18T02:08:10;6.32;;;2.50;;
30380;SDS011;17169;50.966;11.038;2023-03-18T02:11:13;5.68;;;2.10;;
30380;SDS011;17169;50.966;11.038;2023-03-18T02:14:17;4.50;;;2.00;;
30380;SDS011;17169;50.966;11.038;2023-03-18T02:17:24;3.78;;;1.88;;
30380;SDS011;17169;50.966;11.038;2023-03-18T02:20:35;7.40;;;2.03;;
30380;SDS011;17169;50.966;11.038;2023-03-18T02:23:55;6.90;;;2.08;;
30380;SDS011;17169;50.966;11.038;2023-03-18T02:27:03;3.28;;;1.75;;
30380;SDS011;17169;50.966;11.038;2023-03-18T02:30:17;8.70;;;2.20;;
30380;SDS011;17169;50.966;11.038;2023-03-18T02:33:24;4.43;;;2.33;;
30380;SDS011;17169;50.966;11.038;2023-03-18T02:36:31;5.38;;;1.83;;
30380;SDS011;17169;50.966;11.038;2023-03-18T02:39:34;4.55;;;2.05;;
30380;SDS011;17169;50.966;11.038;2023-03-18T02:42:38;4.43;;;1.70;;
30380;SDS011;17169;50.966;11.038;2023-03-18T02:45:42;4.97;;;2.08;;
30380;SDS011;17169;50.966;11.038;2023-03-18T02:48:51;4.53;;;1.80;;
30380;SDS011;17169;50.966;11.038;2023-03-18T02:51:54;7.38;;;2.50;;
30380;SDS011;17169;50.966;11.038;2023-03-18T02:54:57;4.65;;;2.10;;
30380;SDS011;17169;50.966;11.038;2023-03-18T02:58:02;3.28;;;1.52;;
30380;SDS011;17169;50.966;11.038;2023-03-18T03:01:05;5.32;;;2.00;;
30380;SDS011;17169;50.966;11.038;2023-03-18T03:04:08;4.55;;;1.90;;
30380;SDS011;17169;50.966;11.038;2023-03-18T03:07:12;3.97;;;1.95;;
30380;SDS011;17169;50.966;11.038;2023-03-18T03:10:14;3.28;;;1.50;;
30380;SDS011;17169;50.966;11.038;2023-03-18T03:13:18;5.32;;;1.98;;
30380;SDS011;17169;50.966;11.038;2023-03-18T03:16:21;6.50;;;1.95;;
30380;SDS011;17169;50.966;11.038;2023-03-18T03:19:23;3.85;;;1.60;;
30380;SDS011;17169;50.966;11.038;2023-03-18T03:22:26;6.78;;;1.88;;
30380;SDS011;17169;50.966;11.038;2023-03-18T03:25:29;6.35;;;2.35;;
30380;SDS011;17169;50.966;11.038;2023-03-18T03:28:33;4.93;;;1.83;;
30380;SDS011;17169;50.966;11.038;2023-03-18T03:31:35;6.00;;;1.67;;
30380;SDS011;17169;50.966;11.038;2023-03-18T03:34:38;5.85;;;2.40;;
30380;SDS011;17169;50.966;11.038;2023-03-18T03:37:41;6.95;;;1.75;;
30380;SDS011;17169;50.966;11.038;2023-03-18T03:40:43;4.00;;;1.75;;
30380;SDS011;17169;50.966;11.038;2023-03-18T03:43:47;6.07;;;1.80;;
30380;SDS011;17169;50.966;11.038;2023-03-18T03:46:50;6.45;;;1.83;;
30380;SDS011;17169;50.966;11.038;2023-03-18T03:49:52;6.65;;;2.03;;
30380;SDS011;17169;50.966;11.038;2023-03-18T03:52:55;4.15;;;1.90;;
30380;SDS011;17169;50.966;11.038;2023-03-18T03:55:58;5.82;;;2.17;;
30380;SDS011;17169;50.966;11.038;2023-03-18T03:59:02;4.90;;;1.98;;
30380;SDS011;17169;50.966;11.038;2023-03-18T04:02:04;6.38;;;3.30;;
30380;SDS011;17169;50.966;11.038;2023-03-18T04:05:07;6.28;;;2.17;;
30380;SDS011;17169;50.966;11.038;2023-03-18T04:08:10;6.95;;;2.15;;
30380;SDS011;17169;50.966;11.038;2023-03-18T04:11:13;3.28;;;1.90;;
30380;SDS011;17169;50.966;11.038;2023-03-18T04:14:18;4.97;;;2.30;;
30380;SDS011;17169;50.966;11.038;2023-03-18T04:17:20;6.50;;;2.40;;
30380;SDS011;17169;50.966;11.038;2023-03-18T04:20:23;6.10;;;2.65;;
30380;SDS011;17169;50.966;11.038;2023-03-18T04:23:25;6.20;;;2.92;;
30380;SDS011;17169;50.966;11.038;2023-03-18T04:26:28;8.20;;;2.47;;
30380;SDS011;17169;50.966;11.038;2023-03-18T04:29:32;5.07;;;2.05;;
30380;SDS011;17169;50.966;11.038;2023-03-18T04:32:34;4.80;;;2.20;;
30380;SDS011;17169;50.966;11.038;2023-03-18T04:35:37;5.85;;;2.25;;
30380;SDS011;17169;50.966;11.038;2023-03-18T04:38:39;8.45;;;2.22;;
30380;SDS011;17169;50.966;11.038;2023-03-18T04:41:42;4.53;;;2.10;;
30380;SDS011;17169;50.966;11.038;2023-03-18T04:44:46;7.60;;;2.40;;
30380;SDS011;17169;50.966;11.038;2023-03-18T04:47:49;4.97;;;2.15;;
30380;SDS011;17169;50.966;11.038;2023-03-18T04:50:51;6.15;;;1.95;;
30380;SDS011;17169;50.966;11.038;2023-03-18T04:53:54;7.05;;;2.70;;
30380;SDS011;17169;50.966;11.038;2023-03-18T04:56:56;7.07;;;2.28;;
30380;SDS011;17169;50.966;11.038;2023-03-18T05:00:00;8.10;;;2.20;;
30380;SDS011;17169;50.966;11.038;2023-03-18T05:03:04;4.13;;;2.13;;
30380;SDS011;17169;50.966;11.038;2023-03-18T05:06:07;8.90;;;2.38;;
30380;SDS011;17169;50.966;11.038;2023-03-18T05:09:10;5.68;;;2.42;;
30380;SDS011;17169;50.966;11.038;2023-03-18T05:12:13;7.75;;;3.88;;
30380;SDS011;17169;50.966;11.038;2023-03-18T05:15:18;7.57;;;3.03;;
30380;SDS011;17169;50.966;11.038;2023-03-18T05:18:20;5.95;;;2.22;;
30380;SDS011;17169;50.966;11.038;2023-03-18T05:21:23;5.15;;;2.53;;
30380;SDS011;17169;50.966;11.038;2023-03-18T05:24:25;7.43;;;2.55;;
30380;SDS011;17169;50.966;11.038;2023-03-18T05:27:28;5.78;;;2.50;;
30380;SDS011;17169;50.966;11.038;2023-03-18T05:30:32;8.40;;;2.70;;
30380;SDS011;17169;50.966;11.038;2023-03-18T05:33:36;6.75;;;2.45;;
30380;SDS011;17169;50.966;11.038;2023-03-18T05:36:39;6.35;;;2.13;;
30380;SDS011;17169;50.966;11.038;2023-03-18T05:39:41;4.72;;;2.15;;
30380;SDS011;17169;50.966;11.038;2023-03-18T05:42:44;4.90;;;2.25;;
30380;SDS011;17169;50.966;11.038;2023-03-18T05:45:48;7.63;;;2.70;;
30380;SDS011;17169;50.966;11.038;2023-03-18T05:48:51;9.80;;;2.60;;
30380;SDS011;17169;50.966;11.038;2023-03-18T05:51:53;8.20;;;2.80;;
30380;SDS011;17169;50.966;11.038;2023-03-18T05:54:55;5.30;;;2.60;;
30380;SDS011;17169;50.966;11.038;2023-03-18T05:57:58;6.32;;;2.50;;
30380;SDS011;17169;50.966;11.038;2023-03-18T06:01:02;7.68;;;3.28;;
30380;SDS011;17169;50.966;11.038;2023-03-18T06:04:05;6.20;;;2.63;;
30380;SDS011;17169;50.966;11.038;2023-03-18T06:07:08;8.90;;;2.60;;
30380;SDS011;17169;50.966;11.038;2023-03-18T06:10:11;8.57;;;2.40;;
30380;SDS011;17169;50.966;11.038;2023-03-18T06:13:14;8.57;;;2.00;;
30380;SDS011;17169;50.966;11.038;2023-03-18T06:16:18;3.33;;;1.70;;
30380;SDS011;17169;50.966;11.038;2023-03-18T06:19:21;5.93;;;2.20;;
30380;SDS011;17169;50.966;11.038;2023-03-18T06:22:24;5.05;;;2.00;;
30380;SDS011;17169;50.966;11.038;2023-03-18T06:25:27;10.15;;;3.33;;
30380;SDS011;17169;50.966;11.038;2023-03-18T06:28:29;5.68;;;2.30;;
30380;SDS011;17169;50.966;11.038;2023-03-18T06:31:33;9.70;;;2.38;;
30380;SDS011;17169;50.966;11.038;2023-03-18T06:34:37;4.15;;;1.75;;
30380;SDS011;17169;50.966;11.038;2023-03-18T06:37:39;6.97;;;1.63;;
30380;SDS011;17169;50.966;11.038;2023-03-18T06:40:42;4.30;;;1.70;;
30380;SDS011;17169;50.966;11.038;2023-03-18T06:43:45;3.95;;;1.70;;
30380;SDS011;17169;50.966;11.038;2023-03-18T06:46:51;5.60;;;1.65;;
30380;SDS011;17169;50.966;11.038;2023-03-18T06:49:53;7.38;;;2.10;;
30380;SDS011;17169;50.966;11.038;2023-03-18T06:52:56;12.32;;;2.03;;
30380;SDS011;17169;50.966;11.038;2023-03-18T06:55:59;4.88;;;2.00;;
30380;SDS011;17169;50.966;11.038;2023-03-18T06:59:01;6.40;;;2.58;;
30380;SDS011;17169;50.966;11.038;2023-03-18T07:02:05;5.13;;;1.70;;
30380;SDS011;17169;50.966;11.038;2023-03-18T07:05:08;7.65;;;1.95;;
30380;SDS011;17169;50.966;11.038;2023-03-18T07:08:12;6.50;;;1.90;;
30380;SDS011;17169;50.966;11.038;2023-03-18T07:11:15;4.65;;;1.42;;
30380;SDS011;17169;50.966;11.038;2023-03-18T07:14:18;6.00;;;1.80;;
30380;SDS011;17169;50.966;11.038;2023-03-18T07:17:22;3.55;;;1.60;;
30380;SDS011;17169;50.966;11.038;2023-03-18T07:20:24;4.50;;;1.63;;
30380;SDS011;17169;50.966;11.038;2023-03-18T07:23:26;5.85;;;1.95;;
30380;SDS011;17169;50.966;11.038;2023-03-18T07:26:29;5.63;;;2.03;;
30380;SDS011;17169;50.966;11.038;2023-03-18T07:29:31;12.43;;;2.55;;
30380;SDS011;17169;50.966;11.038;2023-03-18T07:32:35;7.20;;;2.50;;
30380;SDS011;17169;50.966;11.038;2023-03-18T07:35:38;10.02;;;2.55;;
30380;SDS011;17169;50.966;11.038;2023-03-18T07:38:41;10.73;;;2.40;;
30380;SDS011;17169;50.966;11.038;2023-03-18T07:41:44;8.57;;;2.08;;
30380;SDS011;17169;50.966;11.038;2023-03-18T07:44:46;12.95;;;2.80;;
30380;SDS011;17169;50.966;11.038;2023-03-18T07:47:50;4.93;;;2.20;;
30380;SDS011;17169;50.966;11.038;2023-03-18T07:50:52;7.78;;;2.25;;
30380;SDS011;17169;50.966;11.038;2023-03-18T07:53:55;3.45;;;1.55;;
30380;SDS011;17169;50.966;11.038;2023-03-18T07:56:58;8.35;;;2.08;;
30380;SDS011;17169;50.966;11.038;2023-03-18T08:00:00;6.00;;;2.15;;
30380;SDS011;17169;50.966;11.038;2023-03-18T08:03:05;5.68;;;2.13;;
30380;SDS011;17169;50.966;11.038;2023-03-18T08:06:08;15.20;;;5.32;;
30380;SDS011;17169;50.966;11.038;2023-03-18T08:09:12;9.20;;;2.33;;
30380;SDS011;17169;50.966;11.038;2023-03-18T08:12:15;3.53;;;1.67;;
30380;SDS011;17169;50.966;11.038;2023-03-18T08:15:18;3.97;;;1.65;;
30380;SDS011;17169;50.966;11.038;2023-03-18T08:18:22;3.33;;;1.60;;
30380;SDS011;17169;50.966;11.038;2023-03-18T08:21:25;5.82;;;1.45;;
30380;SDS011;17169;50.966;11.038;2023-03-18T08:24:27;8.13;;;1.67;;
30380;SDS011;17169;50.966;11.038;2023-03-18T08:27:30;5.70;;;1.70;;
30380;SDS011;17169;50.966;11.038;2023-03-18T08:30:32;8.95;;;2.05;;
30380;SDS011;17169;50.966;11.038;2023-03-18T08:33:36;3.05;;;1.67;;
30380;SDS011;17169;50.966;11.038;2023-03-18T08:36:39;4.75;;;1.60;;
30380;SDS011;17169;50.966;11.038;2023-03-18T08:39:42;8.52;;;1.95;;
30380;SDS011;17169;50.966;11.038;2023-03-18T08:42:44;13.40;;;3.67;;
30380;SDS011;17169;50.966;11.038;2023-03-18T08:45:49;3.78;;;1.70;;
30380;SDS011;17169;50.966;11.038;2023-03-18T08:48:54;9.57;;;1.92;;
30380;SDS011;17169;50.966;11.038;2023-03-18T08:52:00;5.35;;;1.67;;
30380;SDS011;17169;50.966;11.038;2023-03-18T08:55:02;4.07;;;1.30;;
30380;SDS011;17169;50.966;11.038;2023-03-18T08:58:05;7.03;;;1.70;;
30380;SDS011;17169;50.966;11.038;2023-03-18T09:01:08;5.45;;;1.63;;
30380;SDS011;17169;50.966;11.038;2023-03-18T09:04:12;4.55;;;1.40;;
30380;SDS011;17169;50.966;11.038;2023-03-18T09:07:15;3.10;;;1.30;;
30380;SDS011;17169;50.966;11.038;2023-03-18T09:10:18;2.65;;;1.42;;
30380;SDS011;17169;50.966;11.038;2023-03-18T09:13:21;7.15;;;1.75;;
30380;SDS011;17169;50.966;11.038;2023-03-18T09:16:24;3.42;;;1.38;;
30380;SDS011;17169;50.966;11.038;2023-03-18T09:19:27;4.30;;;1.60;;
30380;SDS011;17169;50.966;11.038;2023-03-18T09:22:30;2.70;;;1.20;;
30380;SDS011;17169;50.966;11.038;2023-03-18T09:25:33;4.68;;;1.50;;
30380;SDS011;17169;50.966;11.038;2023-03-18T09:28:36;6.63;;;2.15;;
30380;SDS011;17169;50.966;11.038;2023-03-18T09:31:38;8.15;;;1.90;;
30380;SDS011;17169;50.966;11.038;2023-03-18T09:34:42;4.10;;;1.52;;
30380;SDS011;17169;50.966;11.038;2023-03-18T09:37:45;5.10;;;1.63;;
30380;SDS011;17169;50.966;11.038;2023-03-18T09:40:51;4.25;;;1.70;;
30380;SDS011;17169;50.966;11.038;2023-03-18T09:44:05;4.63;;;1.52;;
30380;SDS011;17169;50.966;11.038;2023-03-18T09:47:21;7.00;;;1.83;;
30380;SDS011;17169;50.966;11.038;2023-03-18T09:50:39;5.28;;;1.80;;
30380;SDS011;17169;50.966;11.038;2023-03-18T09:53:49;4.90;;;2.15;;
30380;SDS011;17169;50.966;11.038;2023-03-18T09:56:56;5.38;;;1.63;;
30380;SDS011;17169;50.966;11.038;2023-03-18T09:59:59;11.25;;;1.90;;
30380;SDS011;17169;50.966;11.038;2023-03-18T10:03:09;5.55;;;1.50;;
30380;SDS011;17169;50.966;11.038;2023-03-18T10:06:18;6.38;;;2.00;;
30380;SDS011;17169;50.966;11.038;2023-03-18T10:09:24;3.47;;;1.50;;
30380;SDS011;17169;50.966;11.038;2023-03-18T10:12:30;3.45;;;1.58;;
30380;SDS011;17169;50.966;11.038;2023-03-18T10:15:35;7.28;;;1.60;;
30380;SDS011;17169;50.966;11.038;2023-03-18T10:18:42;5.82;;;1.80;;
30380;SDS011;17169;50.966;11.038;2023-03-18T10:21:48;5.53;;;1.92;;
30380;SDS011;17169;50.966;11.038;2023-03-18T10:25:00;5.50;;;2.03;;
30380;SDS011;17169;50.966;11.038;2023-03-18T10:28:17;4.15;;;1.50;;
30380;SDS011;17169;50.966;11.038;2023-03-18T10:31:39;5.68;;;1.85;;
30380;SDS011;17169;50.966;11.038;2023-03-18T10:34:54;5.07;;;1.60;;
30380;SDS011;17169;50.966;11.038;2023-03-18T10:38:08;6.25;;;1.75;;
30380;SDS011;17169;50.966;11.038;2023-03-18T10:41:19;5.03;;;1.73;;
30380;SDS011;17169;50.966;11.038;2023-03-18T10:47:27;9.50;;;1.80;;
30380;SDS011;17169;50.966;11.038;2023-03-18T10:50:34;5.28;;;1.67;;
30380;SDS011;17169;50.966;11.038;2023-03-18T10:53:41;5.13;;;1.63;;
30380;SDS011;17169;50.966;11.038;2023-03-18T10:56:47;4.32;;;1.50;;
30380;SDS011;17169;50.966;11.038;2023-03-18T10:59:50;3.13;;;1.30;;
30380;SDS011;17169;50.966;11.038;2023-03-18T11:02:52;4.78;;;1.40;;
30380;SDS011;17169;50.966;11.038;2023-03-18T11:05:56;2.53;;;1.30;;
30380;SDS011;17169;50.966;11.038;2023-03-18T11:09:04;3.65;;;1.30;;
30380;SDS011;17169;50.966;11.038;2023-03-18T11:12:13;4.55;;;1.42;;
30380;SDS011;17169;50.966;11.038;2023-03-18T11:15:18;3.97;;;1.33;;
30380;SDS011;17169;50.966;11.038;2023-03-18T11:18:21;3.30;;;1.33;;
30380;SDS011;17169;50.966;11.038;2023-03-18T11:21:26;2.38;;;1.20;;
30380;SDS011;17169;50.966;11.038;2023-03-18T11:24:30;10.43;;;1.52;;
30380;SDS011;17169;50.966;11.038;2023-03-18T11:27:40;2.67;;;1.00;;
30380;SDS011;17169;50.966;11.038;2023-03-18T11:30:43;6.13;;;1.43;;
30380;SDS011;17169;50.966;11.038;2023-03-18T11:33:48;4.90;;;1.20;;
30380;SDS011;17169;50.966;11.038;2023-03-18T11:36:51;4.43;;;1.33;;
30380;SDS011;17169;50.966;11.038;2023-03-18T11:40:06;5.43;;;1.40;;
30380;SDS011;17169;50.966;11.038;2023-03-18T11:43:19;2.83;;;1.20;;
30380;SDS011;17169;50.966;11.038;2023-03-18T11:46:24;3.30;;;1.25;;
30380;SDS011;17169;50.966;11.038;2023-03-18T11:49:29;3.10;;;1.08;;
30380;SDS011;17169;50.966;11.038;2023-03-18T11:52:34;3.17;;;1.30;;
30380;SDS011;17169;50.966;11.038;2023-03-18T11:55:43;4.97;;;1.60;;
30380;SDS011;17169;50.966;11.038;2023-03-18T11:59:00;4.55;;;1.30;;
30380;SDS011;17169;50.966;11.038;2023-03-18T12:02:39;3.28;;;0.95;;
30380;SDS011;17169;50.966;11.038;2023-03-18T12:05:57;3.50;;;1.10;;
30380;SDS011;17169;50.966;11.038;2023-03-18T12:09:08;5.13;;;1.40;;
30380;SDS011;17169;50.966;11.038;2023-03-18T12:12:24;3.65;;;1.45;;
30380;SDS011;17169;50.966;11.038;2023-03-18T12:15:41;2.30;;;1.35;;
30380;SDS011;17169;50.966;11.038;2023-03-18T12:18:53;4.60;;;1.33;;
30380;SDS011;17169;50.966;11.038;2023-03-18T12:22:22;5.78;;;1.40;;
30380;SDS011;17169;50.966;11.038;2023-03-18T12:25:44;3.85;;;1.25;;
30380;SDS011;17169;50.966;11.038;2023-03-18T12:29:01;5.45;;;1.40;;
30380;SDS011;17169;50.966;11.038;2023-03-18T12:32:37;3.33;;;1.25;;
30380;SDS011;17169;50.966;11.038;2023-03-18T12:35:45;5.32;;;1.38;;
30380;SDS011;17169;50.966;11.038;2023-03-18T12:42:29;6.25;;;1.73;;
30380;SDS011;17169;50.966;11.038;2023-03-18T12:45:42;5.78;;;1.50;;
30380;SDS011;17169;50.966;11.038;2023-03-18T12:48:49;4.45;;;1.15;;
30380;SDS011;17169;50.966;11.038;2023-03-18T12:51:56;4.43;;;1.45;;
30380;SDS011;17169;50.966;11.038;2023-03-18T12:55:03;4.57;;;1.15;;
30380;SDS011;17169;50.966;11.038;2023-03-18T12:58:11;2.75;;;1.10;;
30380;SDS011;17169;50.966;11.038;2023-03-18T13:01:20;7.10;;;1.55;;
30380;SDS011;17169;50.966;11.038;2023-03-18T13:04:28;5.25;;;1.35;;
30380;SDS011;17169;50.966;11.038;2023-03-18T13:07:36;4.22;;;1.55;;
30380;SDS011;17169;50.966;11.038;2023-03-18T13:10:46;7.63;;;1.15;;
30380;SDS011;17169;50.966;11.038;2023-03-18T13:13:55;5.60;;;1.50;;
30380;SDS011;17169;50.966;11.038;2023-03-18T13:17:02;5.45;;;1.48;;
30380;SDS011;17169;50.966;11.038;2023-03-18T13:20:09;7.20;;;1.40;;
30380;SDS011;17169;50.966;11.038;2023-03-18T13:23:15;4.00;;;1.15;;
30380;SDS011;17169;50.966;11.038;2023-03-18T13:26:27;3.35;;;1.00;;
30380;SDS011;17169;50.966;11.038;2023-03-18T13:29:44;3.25;;;1.20;;
30380;SDS011;17169;50.966;11.038;2023-03-18T13:32:58;7.35;;;1.67;;
30380;SDS011;17169;50.966;11.038;2023-03-18T13:39:52;3.30;;;1.20;;
30380;SDS011;17169;50.966;11.038;2023-03-18T13:43:07;4.60;;;1.70;;
30380;SDS011;17169;50.966;11.038;2023-03-18T13:46:16;4.05;;;1.20;;
30380;SDS011;17169;50.966;11.038;2023-03-18T13:49:23;5.78;;;1.35;;
30380;SDS011;17169;50.966;11.038;2023-03-18T13:52:32;3.42;;;1.13;;
30380;SDS011;17169;50.966;11.038;2023-03-18T13:55:39;2.88;;;1.02;;
30380;SDS011;17169;50.966;11.038;2023-03-18T13:58:47;6.05;;;1.30;;
30380;SDS011;17169;50.966;11.038;2023-03-18T14:01:51;5.78;;;1.17;;
30380;SDS011;17169;50.966;11.038;2023-03-18T14:04:55;3.63;;;1.30;;
30380;SDS011;17169;50.966;11.038;2023-03-18T14:07:59;2.47;;;1.00;;
30380;SDS011;17169;50.966;11.038;2023-03-18T14:14:54;6.53;;;1.02;;
30380;SDS011;17169;50.966;11.038;2023-03-18T14:17:58;9.57;;;1.20;;
30380;SDS011;17169;50.966;11.038;2023-03-18T14:21:03;10.10;;;1.75;;
30380;SDS011;17169;50.966;11.038;2023-03-18T14:24:08;12.40;;;1.50;;
30380;SDS011;17169;50.966;11.038;2023-03-18T14:27:15;7.63;;;1.30;;
30380;SDS011;17169;50.966;11.038;2023-03-18T14:30:26;3.40;;;1.30;;
30380;SDS011;17169;50.966;11.038;2023-03-18T14:37:27;4.50;;;1.17;;
30380;SDS011;17169;50.966;11.038;2023-03-18T14:40:33;3.13;;;1.20;;
30380;SDS011;17169;50.966;11.038;2023-03-18T14:43:39;3.53;;;1.02;;
30380;SDS011;17169;50.966;11.038;2023-03-18T14:46:47;5.63;;;1.38;;
30380;SDS011;17169;50.966;11.038;2023-03-18T14:52:57;2.35;;;1.05;;
30380;SDS011;17169;50.966;11.038;2023-03-18T14:56:15;3.72;;;1.05;;
30380;SDS011;17169;50.966;11.038;2023-03-18T14:59:18;4.40;;;1.20;;
30380;SDS011;17169;50.966;11.038;2023-03-18T15:02:26;5.43;;;1.60;;
30380;SDS011;17169;50.966;11.038;2023-03-18T15:05:34;3.05;;;1.30;;
30380;SDS011;17169;50.966;11.038;2023-03-18T15:08:39;2.92;;;1.10;;
30380;SDS011;17169;50.966;11.038;2023-03-18T15:11:50;5.70;;;1.60;;
30380;SDS011;17169;50.966;11.038;2023-03-18T15:14:53;3.42;;;1.02;;
30380;SDS011;17169;50.966;11.038;2023-03-18T15:17:58;4.05;;;1.30;;
30380;SDS011;17169;50.966;11.038;2023-03-18T15:21:03;4.63;;;1.35;;
30380;SDS011;17169;50.966;11.038;2023-03-18T15:24:12;7.70;;;1.27;;
30380;SDS011;17169;50.966;11.038;2023-03-18T15:27:19;6.45;;;1.58;;
30380;SDS011;17169;50.966;11.038;2023-03-18T15:30:23;7.13;;;1.65;;
30380;SDS011;17169;50.966;11.038;2023-03-18T15:33:29;2.38;;;1.05;;
30380;SDS011;17169;50.966;11.038;2023-03-18T15:36:38;4.65;;;1.23;;
30380;SDS011;17169;50.966;11.038;2023-03-18T15:39:43;4.38;;;1.20;;
30380;SDS011;17169;50.966;11.038;2023-03-18T15:42:45;3.38;;;1.20;;
30380;SDS011;17169;50.966;11.038;2023-03-18T15:45:51;4.15;;;1.30;;
30380;SDS011;17169;50.966;11.038;2023-03-18T15:48:56;6.10;;;1.27;;
30380;SDS011;17169;50.966;11.038;2023-03-18T15:52:01;4.72;;;1.52;;
30380;SDS011;17169;50.966;11.038;2023-03-18T15:55:21;5.93;;;1.40;;
30380;SDS011;17169;50.966;11.038;2023-03-18T15:58:33;5.40;;;1.77;;
30380;SDS011;17169;50.966;11.038;2023-03-18T16:01:36;4.22;;;1.80;;
30380;SDS011;17169;50.966;11.038;2023-03-18T16:04:39;3.15;;;1.30;;
30380;SDS011;17169;50.966;11.038;2023-03-18T16:07:44;4.05;;;1.50;;
30380;SDS011;17169;50.966;11.038;2023-03-18T16:10:49;5.85;;;1.40;;
30380;SDS011;17169;50.966;11.038;2023-03-18T16:13:53;6.47;;;1.75;;
30380;SDS011;17169;50.966;11.038;2023-03-18T16:16:55;5.18;;;1.38;;
30380;SDS011;17169;50.966;11.038;2023-03-18T16:19:58;3.33;;;1.45;;
30380;SDS011;17169;50.966;11.038;2023-03-18T16:23:03;5.82;;;1.77;;
30380;SDS011;17169;50.966;11.038;2023-03-18T16:26:10;8.10;;;1.80;;
30380;SDS011;17169;50.966;11.038;2023-03-18T16:29:16;6.53;;;2.10;;
30380;SDS011;17169;50.966;11.038;2023-03-18T16:32:22;6.05;;;2.40;;
30380;SDS011;17169;50.966;11.038;2023-03-18T16:35:25;4.85;;;2.05;;
30380;SDS011;17169;50.966;11.038;2023-03-18T16:38:33;3.58;;;1.95;;
30380;SDS011;17169;50.966;11.038;2023-03-18T16:41:36;4.53;;;1.88;;
30380;SDS011;17169;50.966;11.038;2023-03-18T16:44:39;8.38;;;2.13;;
30380;SDS011;17169;50.966;11.038;2023-03-18T16:47:42;6.55;;;2.30;;
30380;SDS011;17169;50.966;11.038;2023-03-18T16:50:46;4.38;;;2.10;;
30380;SDS011;17169;50.966;11.038;2023-03-18T16:53:50;7.45;;;2.72;;
30380;SDS011;17169;50.966;11.038;2023-03-18T16:56:55;7.72;;;2.78;;
30380;SDS011;17169;50.966;11.038;2023-03-18T16:59:59;8.05;;;2.97;;
30380;SDS011;17169;50.966;11.038;2023-03-18T17:03:05;6.03;;;2.50;;
30380;SDS011;17169;50.966;11.038;2023-03-18T17:06:07;5.53;;;2.33;;
30380;SDS011;17169;50.966;11.038;2023-03-18T17:09:09;11.45;;;2.78;;
30380;SDS011;17169;50.966;11.038;2023-03-18T17:12:13;6.15;;;2.30;;
30380;SDS011;17169;50.966;11.038;2023-03-18T17:15:17;10.80;;;4.00;;
30380;SDS011;17169;50.966;11.038;2023-03-18T17:18:29;9.88;;;4.97;;
30380;SDS011;17169;50.966;11.038;2023-03-18T17:21:31;10.20;;;5.03;;
30380;SDS011;17169;50.966;11.038;2023-03-18T17:24:34;9.45;;;3.67;;
30380;SDS011;17169;50.966;11.038;2023-03-18T17:27:38;8.95;;;3.75;;
30380;SDS011;17169;50.966;11.038;2023-03-18T17:30:45;11.07;;;3.83;;
30380;SDS011;17169;50.966;11.038;2023-03-18T17:33:47;10.27;;;3.97;;
30380;SDS011;17169;50.966;11.038;2023-03-18T17:36:50;8.43;;;3.63;;
30380;SDS011;17169;50.966;11.038;2023-03-18T17:39:52;9.57;;;3.60;;
30380;SDS011;17169;50.966;11.038;2023-03-18T17:42:56;13.07;;;4.30;;
30380;SDS011;17169;50.966;11.038;2023-03-18T17:45:58;19.48;;;3.80;;
30380;SDS011;17169;50.966;11.038;2023-03-18T17:49:04;17.95;;;3.28;;
30380;SDS011;17169;50.966;11.038;2023-03-18T17:52:11;10.57;;;3.65;;
30380;SDS011;17169;50.966;11.038;2023-03-18T17:55:19;10.15;;;3.42;;
30380;SDS011;17169;50.966;11.038;2023-03-18T17:58:25;18.77;;;5.27;;
30380;SDS011;17169;50.966;11.038;2023-03-18T18:01:29;12.57;;;5.07;;
30380;SDS011;17169;50.966;11.038;2023-03-18T18:04:31;13.98;;;5.28;;
30380;SDS011;17169;50.966;11.038;2023-03-18T18:07:34;18.40;;;7.15;;
30380;SDS011;17169;50.966;11.038;2023-03-18T18:10:37;22.70;;;8.02;;
30380;SDS011;17169;50.966;11.038;2023-03-18T18:13:41;22.25;;;7.80;;
30380;SDS011;17169;50.966;11.038;2023-03-18T18:16:44;19.70;;;8.15;;
30380;SDS011;17169;50.966;11.038;2023-03-18T18:19:47;21.67;;;8.18;;
30380;SDS011;17169;50.966;11.038;2023-03-18T18:22:50;23.85;;;9.02;;
30380;SDS011;17169;50.966;11.038;2023-03-18T18:25:55;24.90;;;10.07;;
30380;SDS011;17169;50.966;11.038;2023-03-18T18:29:00;25.88;;;11.65;;
30380;SDS011;17169;50.966;11.038;2023-03-18T18:32:03;26.98;;;11.82;;
30380;SDS011;17169;50.966;11.038;2023-03-18T18:35:06;24.42;;;12.45;;
30380;SDS011;17169;50.966;11.038;2023-03-18T18:38:10;27.83;;;9.27;;
30380;SDS011;17169;50.966;11.038;2023-03-18T18:41:12;20.40;;;10.55;;